No particular awareness of the weather is required.    There are no Weather-warnings


Meteo18 Weather Cam more information Meteo18 Weather Cam


Thunder radar more information blitzortung!


Rain radar more information rain snow radar


Visit our other weather sites:

Template documentation
and downloads

And another site



Weather Underground History page Text

Daily Summary for October 1, 2017 Units:  English    Metric   Both
« Previous Day
Next Day »
Daily Weekly Monthly Yearly Custom
  High: Low: Average:
Temperature: TemperatureC °F 8.6 °F 12 °F
Dew Point: DewpointC °F 7.8 °F 10.8 °F
Humidity: Humidity % 75 % 92 %
Wind Speed: WindSpeedKMH mph 0.0 mph 4.5 mph
Wind Gust: WindSpeedGustKMH mph - -
Wind:- - SSW
Pressure: PressurehPa in 1020.9 in -
Precipitation: 0.5 in    
Historical Graphs
 
 
Tabular Data for October 1, 2017
Time Temperature Dew Point Pressure Wind Wind Speed Wind Gust Humidity Rainfall Rate (Hourly)
TemperatureC °F DewpointC °F PressurehPa in Calm     Humidity % HourlyPrecipMM in
00:02 9.3 °F 8.4 °F 1022.2 in Calm   1.6 mph 94 % 0.0 in
00:12 9.3 °F 8.5 °F 1022.2 in Calm   1.6 mph 95 % 0.0 in
00:17 9.5 °F 8.7 °F 1022.2 in Calm     95 % 0.0 in
00:22 9.4 °F 8.5 °F 1021.9 in Calm     94 % 0.0 in
00:27 9.3 °F 8.4 °F 1021.9 in Calm     94 % 0.0 in
00:32 9.3 °F 8.5 °F 1021.9 in Calm     95 % 0.0 in
00:42 9.1 °F 8.3 °F 1021.9 in Calm     95 % 0.0 in
00:52 9.1 °F 8.3 °F 1021.9 in Calm     95 % 0.0 in
01:02 8.8 °F 8.0 °F 1021.9 in Calm     95 % 0.0 in
01:12 8.7 °F 7.9 °F 1021.9 in Calm     95 % 0.0 in
01:17 8.7 °F 7.9 °F 1021.9 in Calm     95 % 0.0 in
01:22 8.7 °F 7.9 °F 1022.2 in Calm     95 % 0.0 in
01:32 8.8 °F 8.2 °F 1022.2 in Calm     96 % 0.0 in
01:42 8.9 °F 8.3 °F 1021.9 in Calm     96 % 0.0 in
01:52 8.7 °F 7.9 °F 1022.2 in Calm     95 % 0.0 in
01:57 8.6 °F 7.8 °F 1022.2 in Calm     95 % 0.0 in
02:02 8.8 °F 8.2 °F 1022.2 in Calm     96 % 0.0 in
02:07 8.8 °F 8.2 °F 1022.2 in Calm     96 % 0.0 in
02:12 8.8 °F 8.2 °F 1022.2 in Calm     96 % 0.0 in
02:17 8.7 °F 7.9 °F 1022.2 in Calm     95 % 0.0 in
02:22 8.7 °F 8.1 °F 1022.6 in Calm     96 % 0.0 in
02:32 8.7 °F 8.1 °F 1022.2 in Calm     96 % 0.0 in
02:42 8.8 °F 8.2 °F 1022.2 in Calm     96 % 0.0 in
02:52 8.8 °F 8.2 °F 1022.2 in Calm     96 % 0.0 in
02:57 8.8 °F 8.2 °F 1022.2 in Calm     96 % 0.0 in
03:02 8.8 °F 8.2 °F 1022.2 in Calm     96 % 0.0 in
03:12 8.7 °F 8.1 °F 1022.2 in Calm     96 % 0.0 in
03:17 8.8 °F 8.2 °F 1022.2 in Calm     96 % 0.0 in
03:22 8.8 °F 8.2 °F 1022.2 in Calm     96 % 0.0 in
03:27 8.9 °F 8.3 °F 1022.2 in Calm     96 % 0.0 in
03:32 8.9 °F 8.3 °F 1022.2 in Calm     96 % 0.0 in
03:42 8.9 °F 8.3 °F 1022.2 in Calm     96 % 0.0 in
03:47 8.9 °F 8.3 °F 1021.9 in Calm     96 % 0.0 in
03:52 8.9 °F 8.3 °F 1022.2 in Calm     96 % 0.0 in
04:02 8.9 °F 8.3 °F 1022.2 in Calm     96 % 0.0 in
04:12 9.1 °F 8.5 °F 1021.9 in Calm     96 % 0.0 in
04:17 9.1 °F 8.5 °F 1022.2 in Calm     96 % 0.0 in
04:22 9.0 °F 8.4 °F 1021.9 in Calm     96 % 0.0 in
04:27 9.1 °F 8.5 °F 1022.2 in Calm     96 % 0.0 in
04:32 9.1 °F 8.5 °F 1022.2 in Calm     96 % 0.0 in
04:37 9.1 °F 8.5 °F 1022.2 in Calm     96 % 0.0 in
04:47 9.1 °F 8.5 °F 1022.2 in Calm     96 % 0.0 in
04:52 9.0 °F 8.4 °F 1022.2 in Calm     96 % 0.0 in
04:57 9.1 °F 8.5 °F 1022.6 in Calm     96 % 0.0 in
05:02 9.1 °F 8.5 °F 1022.2 in Calm     96 % 0.0 in
05:07 9.1 °F 8.5 °F 1022.2 in Calm     96 % 0.0 in
05:12 9.1 °F 8.5 °F 1022.2 in Calm     96 % 0.0 in
05:17 9.1 °F 8.5 °F 1022.2 in Calm     96 % 0.0 in
05:22 9.1 °F 8.5 °F 1022.2 in Calm     96 % 0.0 in
05:27 9.1 °F 8.5 °F 1022.2 in Calm     96 % 0.0 in
05:32 8.9 °F 8.3 °F 1022.2 in Calm     96 % 0.0 in
05:37 8.9 °F 8.3 °F 1022.2 in Calm     96 % 0.0 in
05:42 8.9 °F 8.3 °F 1022.2 in Calm     96 % 0.0 in
05:47 8.9 °F 8.3 °F 1022.2 in Calm     96 % 0.0 in
05:52 8.9 °F 8.3 °F 1022.6 in Calm     96 % 0.0 in
05:57 9.1 °F 8.5 °F 1022.2 in Calm     96 % 0.0 in
06:02 9.1 °F 8.5 °F 1022.2 in Calm     96 % 0.0 in
06:12 9.1 °F 8.5 °F 1022.2 in Calm     96 % 0.0 in
06:17 9.0 °F 8.4 °F 1022.2 in Calm     96 % 0.0 in
06:22 9.0 °F 8.4 °F 1022.2 in Calm     96 % 0.0 in
06:27 9.0 °F 8.4 °F 1022.2 in Calm     96 % 0.0 in
06:32 9.0 °F 8.4 °F 1022.2 in Calm     96 % 0.0 in
06:37 9.0 °F 8.4 °F 1022.2 in Calm     96 % 0.0 in
06:42 9.0 °F 8.4 °F 1022.2 in Calm     96 % 0.0 in
06:47 9.0 °F 8.4 °F 1022.2 in Calm     96 % 0.0 in
06:57 9.0 °F 8.4 °F 1022.2 in Calm     96 % 0.0 in
07:02 9.0 °F 8.5 °F 1022.2 in Calm     97 % 0.0 in
07:07 8.9 °F 8.3 °F 1021.9 in Calm     96 % 0.0 in
07:12 9.0 °F 8.5 °F 1022.2 in Calm     97 % 0.0 in
07:17 8.9 °F 8.4 °F 1022.2 in Calm     97 % 0.0 in
07:22 8.9 °F 8.4 °F 1022.2 in Calm     97 % 0.3 in
07:27 8.9 °F 8.4 °F 1022.2 in Calm     97 % 0.3 in
07:32 8.9 °F 8.4 °F 1022.2 in Calm     97 % 0.3 in
07:37 8.9 °F 8.4 °F 1022.2 in Calm     97 % 0.3 in
07:42 8.9 °F 8.4 °F 1022.2 in Calm     97 % 0.3 in
07:47 8.9 °F 8.4 °F 1022.2 in Calm     97 % 0.3 in
07:57 9.0 °F 8.5 °F 1022.2 in Calm     97 % 0.3 in
08:02 9.1 °F 8.6 °F 1022.2 in Calm     97 % 0.3 in
08:07 9.1 °F 8.6 °F 1022.2 in Calm   3.2 mph 97 % 0.3 in
08:12 9.1 °F 8.6 °F 1022.2 in Calm   3.2 mph 97 % 0.3 in
08:17 9.2 °F 8.7 °F 1022.2 in Calm   3.2 mph 97 % 0.3 in
08:22 9.2 °F 8.7 °F 1022.2 in Calm     97 % 0.0 in
08:32 9.3 °F 8.8 °F 1022.2 in Calm     97 % 0.0 in
08:37 9.4 °F 8.9 °F 1022.2 in Calm     97 % 0.0 in
08:42 9.4 °F 8.9 °F 1022.2 in Calm   1.6 mph 97 % 0.0 in
08:47 9.6 °F 9.1 °F 1022.2 in Calm   1.6 mph 97 % 0.0 in
08:52 9.7 °F 9.2 °F 1022.2 in Calm   1.6 mph 97 % 0.0 in
08:57 9.7 °F 9.2 °F 1022.2 in Calm     97 % 0.0 in
09:02 9.8 °F 9.3 °F 1022.2 in Calm     97 % 0.0 in
09:12 9.9 °F 9.4 °F 1022.2 in Calm   1.6 mph 97 % 0.0 in
09:17 9.9 °F 9.4 °F 1022.2 in Calm   1.6 mph 97 % 0.0 in
09:22 10.0 °F 9.5 °F 1022.2 in Calm   1.6 mph 97 % 0.0 in
09:27 10.1 °F 9.6 °F 1021.9 in Calm   1.6 mph 97 % 0.0 in
09:32 10.2 °F 9.7 °F 1022.2 in Calm   1.6 mph 97 % 0.0 in
09:37 10.3 °F 9.8 °F 1022.2 in Calm   1.6 mph 97 % 0.0 in
09:42 10.4 °F 9.9 °F 1022.2 in South 4.8 mph 4.8 mph 97 % 0.0 in
09:47 10.6 °F 10.1 °F 1022.2 in Calm   4.8 mph 97 % 0.0 in
09:52 10.7 °F 10.2 °F 1022.2 in Calm   4.8 mph 97 % 0.0 in
09:57 10.9 °F 10.4 °F 1022.2 in Calm   4.8 mph 97 % 0.0 in
10:02 11.0 °F 10.5 °F 1022.2 in Calm   4.8 mph 97 % 0.0 in
10:12 11.3 °F 10.8 °F 1021.9 in Calm   4.8 mph 97 % 0.0 in
10:17 11.4 °F 10.9 °F 1021.9 in SSW 3.2 mph 6.4 mph 97 % 0.0 in
10:22 11.6 °F 11.0 °F 1022.2 in SSW 1.6 mph 6.4 mph 96 % 0.0 in
10:32 11.8 °F 11.2 °F 1022.2 in SSW 1.6 mph 6.4 mph 96 % 0.0 in
10:37 11.9 °F 11.3 °F 1022.2 in South 3.2 mph 4.8 mph 96 % 0.0 in
10:42 12.0 °F 11.2 °F 1022.2 in Calm   4.8 mph 95 % 0.0 in
10:47 12.1 °F 11.3 °F 1022.2 in Calm   4.8 mph 95 % 0.0 in
10:52 12.3 °F 11.5 °F 1022.2 in Calm   4.8 mph 95 % 0.0 in
11:02 12.5 °F 11.6 °F 1022.2 in Calm   6.4 mph 94 % 0.0 in
11:12 12.8 °F 11.7 °F 1022.2 in SSW 3.2 mph 6.4 mph 93 % 0.0 in
11:17 12.9 °F 11.6 °F 1021.9 in Calm   8.0 mph 92 % 0.0 in
11:22 13.1 °F 11.8 °F 1021.9 in Calm   8.0 mph 92 % 0.0 in
11:32 13.3 °F 11.9 °F 1022.2 in SSE 3.2 mph 8.0 mph 91 % 0.0 in
11:37 13.5 °F 11.9 °F 1022.2 in SSW 3.2 mph 8.0 mph 90 % 0.0 in
11:42 13.7 °F 11.9 °F 1022.2 in SSW 4.8 mph 8.0 mph 89 % 0.0 in
11:47 13.7 °F 11.7 °F 1022.2 in SSW 1.6 mph 9.7 mph 88 % 0.0 in
11:52 13.8 °F 11.8 °F 1022.2 in SSE 3.2 mph 9.7 mph 88 % 0.0 in
11:57 14.0 °F 12.0 °F 1022.2 in South 1.6 mph 11.3 mph 88 % 0.0 in
12:02 14.2 °F 12.1 °F 1022.2 in South 3.2 mph 11.3 mph 87 % 0.0 in
12:07 14.3 °F 12.2 °F 1022.2 in South 6.4 mph 11.3 mph 87 % 0.0 in
12:12 14.4 °F 12.3 °F 1022.2 in SSW 4.8 mph 11.3 mph 87 % 0.0 in
12:17 14.6 °F 12.3 °F 1022.2 in SSW 3.2 mph 11.3 mph 86 % 0.0 in
12:27 14.8 °F 12.5 °F 1021.9 in SSW 6.4 mph 11.3 mph 86 % 0.0 in
12:32 14.9 °F 12.4 °F 1021.9 in SE 4.8 mph 11.3 mph 85 % 0.0 in
12:37 15.1 °F 12.4 °F 1021.9 in South 4.8 mph 14.5 mph 84 % 0.0 in
12:42 15.1 °F 12.0 °F 1021.9 in SSW 14.5 mph 19.3 mph 82 % 0.0 in
12:52 15.1 °F 11.7 °F 1021.9 in SW 14.5 mph 19.3 mph 80 % 0.0 in
12:57 15.2 °F 11.8 °F 1021.9 in SW 8.0 mph 20.9 mph 80 % 0.0 in
13:02 15.2 °F 11.6 °F 1021.9 in SSW 8.0 mph 20.9 mph 79 % 0.0 in
13:12 15.2 °F 11.6 °F 1021.9 in SSW 9.7 mph 20.9 mph 79 % 0.0 in
13:17 15.2 °F 11.8 °F 1021.9 in SSW 12.9 mph 20.9 mph 80 % 0.0 in
13:22 15.2 °F 11.6 °F 1021.9 in SW 14.5 mph 20.9 mph 79 % 0.0 in
13:27 15.2 °F 11.8 °F 1021.9 in SW 16.1 mph 19.3 mph 80 % 0.0 in
13:32 15.2 °F 11.8 °F 1021.6 in SW 6.4 mph 20.9 mph 80 % 0.0 in
13:42 15.3 °F 12.1 °F 1021.6 in SSW 12.9 mph 20.9 mph 81 % 0.0 in
13:47 15.4 °F 12.0 °F 1021.6 in SW 4.8 mph 19.3 mph 80 % 0.0 in
13:52 15.4 °F 12.0 °F 1021.6 in SSW 8.0 mph 17.7 mph 80 % 0.0 in
14:02 15.6 °F 11.8 °F 1021.6 in SW 14.5 mph 19.3 mph 78 % 0.0 in
14:12 15.6 °F 11.2 °F 1021.6 in SW 11.3 mph 19.3 mph 75 % 0.0 in
14:18 15.6 °F 11.6 °F 1021.6 in SW 11.3 mph 19.3 mph 77 % 0.0 in
14:27 15.6 °F 11.6 °F 1021.6 in SW 11.3 mph 19.3 mph 77 % 0.0 in
14:32 15.6 °F 11.8 °F 1021.6 in SW 14.5 mph 19.3 mph 78 % 0.0 in
14:42 15.4 °F 11.8 °F 1021.6 in SW 4.8 mph 17.7 mph 79 % 0.0 in
14:47 15.4 °F 12.0 °F 1021.6 in SSW 9.7 mph 17.7 mph 80 % 0.0 in
14:52 15.5 °F 11.9 °F 1021.6 in SW 11.3 mph 17.7 mph 79 % 0.0 in
14:57 15.4 °F 11.2 °F 1021.6 in South 12.9 mph 16.1 mph 76 % 0.0 in
15:02 15.4 °F 11.6 °F 1021.6 in SSW 3.2 mph 19.3 mph 78 % 0.0 in
15:07 15.4 °F 11.4 °F 1021.6 in SW 8.0 mph 19.3 mph 77 % 0.0 in
15:17 15.6 °F 11.2 °F 1021.6 in SSW 8.0 mph 19.3 mph 75 % 0.0 in
15:22 15.7 °F 11.5 °F 1021.2 in SW 9.7 mph 19.3 mph 76 % 0.0 in
15:27 15.7 °F 11.7 °F 1021.6 in SSW 9.7 mph 19.3 mph 77 % 0.0 in
15:32 15.7 °F 11.5 °F 1021.2 in SSW 9.7 mph 20.9 mph 76 % 0.0 in
15:37 15.7 °F 11.5 °F 1021.6 in SW 14.5 mph 20.9 mph 76 % 0.0 in
15:42 15.7 °F 11.5 °F 1021.2 in SW 16.1 mph 20.9 mph 76 % 0.0 in
15:47 15.6 °F 11.2 °F 1021.2 in SW 17.7 mph 24.1 mph 75 % 0.0 in
15:52 15.4 °F 11.0 °F 1021.2 in SW 9.7 mph 24.1 mph 75 % 0.0 in
15:57 15.3 °F 11.5 °F 1021.2 in WSW 19.3 mph 24.1 mph 78 % 0.0 in
16:02 15.3 °F 11.5 °F 1021.2 in SW 16.1 mph 24.1 mph 78 % 0.0 in
16:12 15.1 °F 11.7 °F 1021.6 in SW 12.9 mph 22.5 mph 80 % 0.0 in
16:17 15.0 °F 11.6 °F 1021.6 in SSW 11.3 mph 22.5 mph 80 % 0.0 in
16:22 14.9 °F 11.5 °F 1021.6 in South 11.3 mph 22.5 mph 80 % 0.0 in
16:27 14.8 °F 11.4 °F 1021.6 in SSE 6.4 mph 22.5 mph 80 % 0.0 in
16:32 14.8 °F 11.9 °F 1021.6 in SW 8.0 mph 22.5 mph 83 % 0.0 in
16:37 14.7 °F 12.2 °F 1021.2 in SW 11.3 mph 19.3 mph 85 % 0.0 in
16:42 14.6 °F 12.1 °F 1021.2 in SSW 11.3 mph 19.3 mph 85 % 0.0 in
16:47 14.5 °F 12.4 °F 1021.6 in SW 11.3 mph 19.3 mph 87 % 0.0 in
16:52 14.3 °F 12.3 °F 1021.2 in SW 12.9 mph 17.7 mph 88 % 0.0 in
17:02 14.0 °F 12.4 °F 1021.2 in SSW 9.7 mph 19.3 mph 90 % 0.0 in
17:12 14.0 °F 12.6 °F 1021.2 in SSW 4.8 mph 16.1 mph 91 % 0.0 in
17:17 14.0 °F 12.6 °F 1021.2 in South 9.7 mph 14.5 mph 91 % 0.0 in
17:22 14.1 °F 12.8 °F 1020.9 in SW 12.9 mph 14.5 mph 92 % 0.0 in
17:32 14.0 °F 12.7 °F 1021.2 in SW 6.4 mph 16.1 mph 92 % 0.0 in
17:42 14.0 °F 12.7 °F 1021.2 in SSW 11.3 mph 16.1 mph 92 % 0.0 in
17:47 14.1 °F 13.0 °F 1020.9 in SW 8.0 mph 16.1 mph 93 % 0.0 in
17:52 14.1 °F 13.0 °F 1020.9 in SW 6.4 mph 16.1 mph 93 % 0.0 in
17:57 14.2 °F 13.1 °F 1020.9 in SW 9.7 mph 14.5 mph 93 % 0.0 in
18:02 14.1 °F 13.0 °F 1020.9 in SW 11.3 mph 12.9 mph 93 % 0.0 in
18:07 14.1 °F 13.0 °F 1020.9 in South 4.8 mph 16.1 mph 93 % 0.0 in
18:12 14.1 °F 13.1 °F 1020.9 in SSW 6.4 mph 16.1 mph 94 % 0.0 in
18:17 14.1 °F 13.1 °F 1020.9 in SW 12.9 mph 16.1 mph 94 % 0.0 in
18:22 14.0 °F 13.0 °F 1020.9 in South 12.9 mph 16.1 mph 94 % 0.0 in
18:27 13.9 °F 12.9 °F 1020.9 in SW 9.7 mph 20.9 mph 94 % 0.0 in
18:32 13.9 °F 12.9 °F 1020.9 in SSW 8.0 mph 20.9 mph 94 % 0.0 in
18:37 13.9 °F 13.1 °F 1020.9 in SSW 11.3 mph 20.9 mph 95 % 0.0 in
18:42 13.9 °F 13.1 °F 1020.9 in South 8.0 mph 20.9 mph 95 % 0.0 in
18:47 13.8 °F 13.0 °F 1020.9 in SSW 9.7 mph 20.9 mph 95 % 0.0 in
18:52 13.8 °F 13.0 °F 1020.9 in South 4.8 mph 16.1 mph 95 % 0.0 in
19:02 13.8 °F 13.0 °F 1021.2 in SW 8.0 mph 16.1 mph 95 % 0.0 in
19:12 13.8 °F 13.2 °F 1021.2 in SW 9.7 mph 17.7 mph 96 % 0.0 in
19:17 13.8 °F 13.2 °F 1021.2 in SSW 6.4 mph 17.7 mph 96 % 0.0 in
19:22 13.8 °F 13.2 °F 1021.2 in SW 11.3 mph 17.7 mph 96 % 0.0 in
19:27 13.8 °F 13.2 °F 1020.9 in SW 6.4 mph 14.5 mph 96 % 0.0 in
19:32 13.8 °F 13.2 °F 1020.9 in SW 11.3 mph 14.5 mph 96 % 0.0 in
19:37 13.8 °F 13.2 °F 1021.2 in SSW 8.0 mph 19.3 mph 96 % 0.0 in
19:42 13.7 °F 13.1 °F 1020.9 in SW 14.5 mph 19.3 mph 96 % 0.0 in
19:47 13.7 °F 13.1 °F 1021.2 in SSW 6.4 mph 19.3 mph 96 % 0.0 in
19:52 13.7 °F 13.1 °F 1021.2 in SW 4.8 mph 17.7 mph 96 % 0.0 in
19:57 13.7 °F 13.1 °F 1021.2 in SSW 8.0 mph 17.7 mph 96 % 0.0 in
20:02 13.7 °F 13.1 °F 1021.2 in South 9.7 mph 14.5 mph 96 % 0.0 in
20:07 13.7 °F 13.1 °F 1021.2 in SSW 6.4 mph 12.9 mph 96 % 0.0 in
20:12 13.7 °F 13.1 °F 1021.2 in SSW 11.3 mph 14.5 mph 96 % 0.0 in
20:17 13.7 °F 13.1 °F 1021.2 in SW 6.4 mph 14.5 mph 96 % 0.0 in
20:22 13.7 °F 13.1 °F 1021.2 in SSW 9.7 mph 14.5 mph 96 % 0.0 in
20:27 13.7 °F 13.1 °F 1021.2 in SSW 9.7 mph 12.9 mph 96 % 0.0 in
20:32 13.7 °F 13.1 °F 1021.2 in SSW 6.4 mph 12.9 mph 96 % 0.0 in
20:37 13.7 °F 13.1 °F 1021.2 in SSW 8.0 mph 12.9 mph 96 % 0.0 in
20:42 13.7 °F 13.1 °F 1021.2 in SSW 3.2 mph 12.9 mph 96 % 0.0 in
20:52 13.8 °F 13.2 °F 1021.2 in SW 9.7 mph 14.5 mph 96 % 0.0 in
20:57 13.8 °F 13.2 °F 1021.6 in SW 3.2 mph 12.9 mph 96 % 0.0 in
21:02 13.8 °F 13.2 °F 1021.6 in SSW 4.8 mph 12.9 mph 96 % 0.0 in
21:07 13.8 °F 13.2 °F 1021.6 in SSW 4.8 mph 12.9 mph 96 % 0.0 in
21:12 13.8 °F 13.2 °F 1021.6 in SW 3.2 mph 11.3 mph 96 % 0.0 in
21:17 13.8 °F 13.2 °F 1021.6 in SSW 3.2 mph 11.3 mph 96 % 0.0 in
21:22 13.8 °F 13.2 °F 1021.6 in SW 4.8 mph 11.3 mph 96 % 0.0 in
21:27 13.8 °F 13.2 °F 1021.6 in SW 6.4 mph 12.9 mph 96 % 0.0 in
21:32 13.9 °F 13.3 °F 1021.6 in SW 4.8 mph 16.1 mph 96 % 0.0 in
21:37 13.9 °F 13.3 °F 1021.6 in SW 3.2 mph 16.1 mph 96 % 0.0 in
21:42 13.9 °F 13.3 °F 1021.6 in SW 4.8 mph 11.3 mph 96 % 0.0 in
21:47 13.9 °F 13.3 °F 1021.6 in SSW 4.8 mph 11.3 mph 96 % 0.0 in
21:52 13.9 °F 13.1 °F 1021.6 in SW 8.0 mph 11.3 mph 95 % 0.0 in
21:57 13.9 °F 13.3 °F 1021.6 in SW 8.0 mph 16.1 mph 96 % 0.0 in
22:02 13.9 °F 13.3 °F 1021.6 in SW 8.0 mph 16.1 mph 96 % 0.0 in
22:07 13.9 °F 13.3 °F 1021.6 in SSW 9.7 mph 16.1 mph 96 % 0.0 in
22:12 13.9 °F 13.3 °F 1021.6 in SW 11.3 mph 12.9 mph 96 % 0.0 in
22:17 13.9 °F 13.3 °F 1021.6 in SSW 6.4 mph 12.9 mph 96 % 0.0 in
22:22 13.9 °F 13.3 °F 1021.6 in SW 6.4 mph 14.5 mph 96 % 0.0 in
22:32 13.9 °F 13.3 °F 1021.6 in SSW 8.0 mph 14.5 mph 96 % 0.0 in
22:42 13.9 °F 13.3 °F 1021.6 in SSW 3.2 mph 14.5 mph 96 % 0.3 in
22:47 13.8 °F 13.2 °F 1021.2 in SW 8.0 mph 14.5 mph 96 % 0.3 in
22:52 13.8 °F 13.2 °F 1021.2 in South 4.8 mph 12.9 mph 96 % 0.3 in
22:57 13.8 °F 13.2 °F 1021.2 in SSW 1.6 mph 12.9 mph 96 % 0.5 in
23:02 13.8 °F 13.2 °F 1021.2 in SSW 4.8 mph 11.3 mph 96 % 0.5 in
23:12 13.8 °F 13.2 °F 1021.6 in SW 6.4 mph 11.3 mph 96 % 0.5 in
23:17 13.8 °F 13.2 °F 1021.2 in SSW 9.7 mph 11.3 mph 96 % 0.5 in
23:22 13.8 °F 13.2 °F 1021.6 in South 4.8 mph 11.3 mph 96 % 0.5 in
23:27 13.8 °F 13.2 °F 1021.2 in SSW 6.4 mph 12.9 mph 96 % 0.5 in
23:32 13.8 °F 13.2 °F 1021.2 in SSW 6.4 mph 17.7 mph 96 % 0.5 in
23:37 13.8 °F 13.3 °F 1021.2 in SW 6.4 mph 17.7 mph 97 % 0.3 in
23:42 13.8 °F 13.3 °F 1021.2 in SW 6.4 mph 17.7 mph 97 % 0.3 in
23:47 13.8 °F 13.3 °F 1021.2 in SW 9.7 mph 12.9 mph 97 % 0.3 in
23:52 13.8 °F 13.3 °F 1020.9 in SW 6.4 mph 16.1 mph 97 % 0.3 in
23:57 13.8 °F 13.3 °F 1020.9 in SSW 11.3 mph 17.7 mph 97 % 0.0 in
Meteo18
Compliments of Weather Underground - 4 mb

Script developed by  Jim McMurry - jmcmurry@mwt.net Adapted for the template by  Wim van der Kuil - Leuven-Template.eu

You find our weather info also at:

European Weather Network

Weather Underground

Equipment we use:

Weather-station
Davis Vue

Weather-program
Meteobridge

Weather-server
Raspberry PI 2 B+

Provider
1 and 1

Davis Vue

Meteobridge

Raspberry PI 2 B+

1 and 1